createdAt,value
2019-04-26T00:02:44.013Z,99663.01
2019-04-26T00:05:14.436Z,99663.15
2019-04-26T00:07:43.808Z,99665.96
2019-04-26T00:10:30.132Z,99685.18
2019-04-26T00:13:12.399Z,99681.67
2019-04-26T00:16:03.577Z,99675.26
2019-04-26T00:18:32.644Z,99664.04
2019-04-26T00:21:01.623Z,99672.34
2019-04-26T00:23:30.781Z,99666.16
2019-04-26T00:26:00.107Z,99660.44
2019-04-26T00:28:29.117Z,99660.09
2019-04-26T00:30:58.122Z,99661.22
2019-04-26T00:33:27.054Z,99653.67
2019-04-26T00:35:55.852Z,99656.48
2019-04-26T00:38:24.738Z,99663.66
2019-04-26T00:40:53.666Z,99661.50
2019-04-26T00:43:22.705Z,99668.53
2019-04-26T00:45:51.708Z,99675.36
2019-04-26T00:48:21.091Z,99685.06
2019-04-26T00:50:50.154Z,99675.49
2019-04-26T00:53:19.645Z,99667.95
2019-04-26T00:55:48.952Z,99661.91
2019-04-26T00:58:18.724Z,99653.16
2019-04-26T01:00:48.309Z,99660.33
2019-04-26T01:03:17.292Z,99656.10
2019-04-26T01:05:46.267Z,99658.44
2019-04-26T01:08:15.812Z,99660.39
2019-04-26T01:10:44.697Z,99652.88
2019-04-26T01:13:13.560Z,99643.98
2019-04-26T01:15:42.368Z,99635.62
2019-04-26T01:18:11.240Z,99627.00
2019-04-26T01:20:40.318Z,99627.48
2019-04-26T01:23:09.324Z,99630.54
2019-04-26T01:25:45.903Z,99607.55
2019-04-26T01:28:19.695Z,99606.35
2019-04-26T01:30:48.784Z,99603.47
2019-04-26T01:33:20.131Z,99595.58
2019-04-26T01:35:49.368Z,99589.03
2019-04-26T01:38:19.245Z,99597.53
2019-04-26T01:40:51.653Z,99604.36
2019-04-26T01:43:27.225Z,99617.59
2019-04-26T01:46:10.849Z,99623.94
2019-04-26T01:48:48.427Z,99626.89
2019-04-26T01:51:28.679Z,99628.97
2019-04-26T01:53:56.992Z,99642.48
2019-04-26T01:56:29.311Z,99649.09
2019-04-26T01:58:58.194Z,99654.09
2019-04-26T02:01:37.959Z,99655.92
2019-04-26T02:04:06.889Z,99656.39
2019-04-26T02:06:35.793Z,99654.50
2019-04-26T02:09:07.358Z,99661.19
2019-04-26T02:11:36.637Z,99658.64
2019-04-26T02:14:05.626Z,99657.66
2019-04-26T02:16:34.585Z,99654.12
2019-04-26T02:19:03.601Z,99650.37
2019-04-26T02:21:37.871Z,99650.37
2019-04-26T02:24:13.036Z,99656.72
2019-04-26T02:26:43.512Z,99654.17
2019-04-26T02:29:14.554Z,99671.66
2019-04-26T02:31:44.303Z,99686.63
2019-04-26T02:34:13.642Z,99676.28
2019-04-26T02:36:57.217Z,99687.97
2019-04-26T02:39:37.139Z,99693.09
2019-04-26T02:42:06.709Z,99690.91
2019-04-26T02:44:50.587Z,99698.92
2019-04-26T02:47:43.226Z,99706.35
2019-04-26T02:50:18.088Z,99701.64
2019-04-26T02:53:09.110Z,99696.05
2019-04-26T02:56:13.806Z,99692.17
2019-04-26T02:59:37.717Z,99698.51
2019-04-26T03:02:06.878Z,99691.48
2019-04-26T03:04:38.013Z,99678.38
2019-04-26T03:07:18.062Z,99671.31
2019-04-26T03:09:46.988Z,99671.95
2019-04-26T03:12:16.345Z,99674.97
2019-04-26T03:15:13.580Z,99676.58
2019-04-26T03:17:50.646Z,99676.58
2019-04-26T03:20:23.769Z,99679.38
2019-04-26T03:23:02.268Z,99687.05
2019-04-26T03:25:45.600Z,99693.34
2019-04-26T03:28:39.534Z,99685.84
2019-04-26T03:31:25.053Z,99683.91
2019-04-26T03:34:27.279Z,99701.41
2019-04-26T03:37:20.804Z,99709.08
2019-04-26T03:40:09.999Z,99712.23
2019-04-26T03:42:52.989Z,99725.38
2019-04-26T03:45:39.080Z,99722.32
2019-04-26T03:48:18.258Z,99716.02
2019-04-26T03:50:56.067Z,99697.92
2019-04-26T03:53:53.042Z,99692.70
2019-04-26T03:57:04.153Z,99685.16
2019-04-26T03:59:49.135Z,99689.94
2019-04-26T04:02:40.904Z,99715.33
2019-04-26T04:05:24.072Z,99732.19
2019-04-26T04:07:53.325Z,99721.88
2019-04-26T04:10:26.776Z,99722.39
2019-04-26T04:13:12.149Z,99717.31
2019-04-26T04:15:46.712Z,99700.55
2019-04-26T04:18:21.448Z,99691.80
2019-04-26T04:21:18.466Z,99696.06
2019-04-26T04:24:17.340Z,99712.83
2019-04-26T04:27:00.638Z,99746.83
2019-04-26T04:29:55.249Z,99768.58
2019-04-26T04:32:31.003Z,99770.52
2019-04-26T04:35:01.660Z,99779.13
2019-04-26T04:37:34.322Z,99776.47
2019-04-26T04:40:27.029Z,99774.43
2019-04-26T04:43:22.122Z,99752.20
2019-04-26T04:47:03.408Z,99746.98
2019-04-26T04:50:00.012Z,99732.29
2019-04-26T04:52:44.533Z,99719.92
2019-04-26T04:55:43.502Z,99718.08
2019-04-26T04:58:18.504Z,99717.25
2019-04-26T05:01:26.159Z,99727.55
2019-04-26T05:04:07.631Z,99753.31
2019-04-26T05:07:23.794Z,99765.68
2019-04-26T05:10:03.805Z,99760.34
2019-04-26T05:12:41.649Z,99769.21
2019-04-26T05:15:44.558Z,99780.72
2019-04-26T05:18:32.565Z,99794.81
2019-04-26T05:21:17.426Z,99778.91
2019-04-26T05:24:29.071Z,99763.87
2019-04-26T05:27:17.828Z,99772.70
2019-04-26T05:30:33.646Z,99773.22
2019-04-26T05:33:31.307Z,99773.56
2019-04-26T05:36:21.049Z,99797.73
2019-04-26T05:39:07.277Z,99812.20
2019-04-26T05:42:32.108Z,99808.43
2019-04-26T05:46:02.287Z,99819.72
2019-04-26T05:48:58.764Z,99797.67
2019-04-26T05:52:07.115Z,99800.08
2019-04-26T05:55:08.688Z,99801.31
2019-04-26T05:58:03.351Z,99784.68
2019-04-26T06:02:05.373Z,99792.67
2019-04-26T06:05:03.191Z,99808.94
2019-04-26T06:10:56.504Z,99817.44
2019-04-26T06:13:58.425Z,99802.76
2019-04-26T06:16:54.801Z,99812.94
2019-04-26T06:19:48.207Z,99816.31
2019-04-26T06:22:25.879Z,99823.73
2019-04-26T06:25:07.248Z,99824.64
2019-04-26T06:27:52.128Z,99821.23
2019-04-26T06:30:57.301Z,99818.05
2019-04-26T06:33:39.221Z,99832.99
2019-04-26T06:36:13.163Z,99817.93
2019-04-26T06:39:31.851Z,99826.05
2019-04-26T06:42:29.327Z,99835.22
2019-04-26T06:45:37.855Z,99833.36
2019-04-26T06:48:16.481Z,99832.34
2019-04-26T06:50:52.842Z,99822.05
2019-04-26T06:53:51.975Z,99826.81
2019-04-26T06:56:57.413Z,99838.75
2019-04-26T06:59:43.375Z,99870.55
2019-04-26T07:02:19.975Z,99882.88
2019-04-26T07:05:23.201Z,99878.52
2019-04-26T07:08:26.398Z,99864.24
2019-04-26T07:11:45.000Z,99848.97
2019-04-26T07:14:46.051Z,99861.95
2019-04-26T07:17:17.423Z,99857.59
2019-04-26T07:20:16.817Z,99856.37
2019-04-26T07:23:13.485Z,99852.12
2019-04-26T07:26:19.447Z,99858.28
2019-04-26T07:29:30.448Z,99867.19
2019-04-26T07:32:21.338Z,99876.48
2019-04-26T07:35:19.670Z,99875.22
2019-04-26T07:38:16.333Z,99866.14
2019-04-26T07:41:29.891Z,99876.91
2019-04-26T07:44:51.453Z,99874.45
2019-04-26T07:47:36.612Z,99891.97
2019-04-26T07:50:36.865Z,99889.92
2019-04-26T07:53:36.246Z,99888.86
2019-04-26T07:56:36.426Z,99883.00
2019-04-26T07:59:52.499Z,99882.61
2019-04-26T08:02:51.071Z,99878.67
2019-04-26T08:05:32.492Z,99871.46
2019-04-26T08:08:05.876Z,99888.34
2019-04-26T08:10:37.686Z,99887.27
2019-04-26T08:13:08.170Z,99890.33
2019-04-26T08:15:48.418Z,99881.34
2019-04-26T08:18:20.771Z,99869.84
2019-04-26T08:20:52.266Z,99874.46
2019-04-26T08:23:41.035Z,99899.28
2019-04-26T08:26:01.755Z,99911.05
2019-04-26T08:28:31.722Z,99922.19
2019-04-26T08:31:01.601Z,99928.90
2019-04-26T08:33:35.687Z,99926.70
2019-04-26T08:36:04.714Z,99932.91
2019-04-26T08:38:34.347Z,99935.48
2019-04-26T08:41:04.984Z,99936.82
2019-04-26T08:44:03.738Z,99940.95
2019-04-26T08:46:50.635Z,99937.56
2019-04-26T08:49:39.098Z,99940.47
2019-04-26T08:52:14.397Z,99940.61
2019-04-26T08:54:43.320Z,99941.33
2019-04-26T08:57:22.173Z,99939.87
2019-04-26T08:59:54.175Z,99934.41
2019-04-26T09:02:45.616Z,99938.30
2019-04-26T09:05:37.307Z,99940.48
2019-04-26T09:08:06.500Z,99947.05
2019-04-26T09:10:35.555Z,99949.59
2019-04-26T09:13:04.545Z,99950.81
2019-04-26T09:15:58.923Z,99952.38
2019-04-26T09:18:27.948Z,99969.27
2019-04-26T09:20:57.033Z,99971.34
2019-04-26T09:23:56.713Z,99976.56
2019-04-26T09:26:46.611Z,99987.00
2019-04-26T09:29:30.207Z,99972.94
2019-04-26T09:32:08.663Z,99972.34
2019-04-26T09:34:41.286Z,99969.91
2019-04-26T09:37:07.689Z,99969.08
2019-04-26T09:39:36.657Z,99974.77
2019-04-26T09:42:12.938Z,99968.33
2019-04-26T09:44:47.098Z,99976.96
2019-04-26T09:47:24.246Z,99975.98
2019-04-26T09:50:14.938Z,99968.70
2019-04-26T09:52:45.742Z,99978.80
2019-04-26T09:55:14.708Z,99979.50
2019-04-26T09:57:43.826Z,99984.37
2019-04-26T10:00:15.395Z,100002.95
2019-04-26T10:02:44.518Z,100007.31
2019-04-26T10:05:13.630Z,100010.97
2019-04-26T10:07:42.818Z,100006.95
2019-04-26T10:10:22.343Z,100009.16
2019-04-26T10:12:53.630Z,100007.43
2019-04-26T10:15:35.450Z,100016.31
2019-04-26T10:18:04.570Z,100017.30
2019-04-26T10:20:33.569Z,100018.23
2019-04-26T10:23:02.435Z,100019.10
2019-04-26T10:25:31.506Z,100021.77
2019-04-26T10:28:00.440Z,100012.42
2019-04-26T10:30:29.346Z,100024.92
2019-04-26T10:33:02.082Z,100034.78
2019-04-26T10:35:28.983Z,100033.91
2019-04-26T10:37:57.990Z,100032.34
2019-04-26T10:40:35.396Z,100039.02
2019-04-26T10:42:57.696Z,100035.97
2019-04-26T10:45:27.924Z,100030.27
2019-04-26T10:47:56.167Z,100034.75
2019-04-26T10:50:28.730Z,100034.16
2019-04-26T10:53:07.988Z,100030.63
2019-04-26T10:55:54.911Z,100041.67
2019-04-26T10:58:38.065Z,100036.83
2019-04-26T11:01:26.302Z,100034.16
2019-04-26T11:04:14.328Z,100045.32
2019-04-26T11:06:43.165Z,100047.13
2019-04-26T11:09:12.079Z,100048.11
2019-04-26T11:11:41.147Z,100048.23
2019-04-26T11:14:10.175Z,100061.58
2019-04-26T11:16:41.151Z,100058.55
2019-04-26T11:19:10.222Z,100057.22
2019-04-26T11:21:39.150Z,100068.85
2019-04-26T11:24:08.231Z,100060.95
2019-04-26T11:26:37.162Z,100066.80
2019-04-26T11:29:06.208Z,100067.40
2019-04-26T11:31:35.179Z,100056.36
2019-04-26T11:36:37.691Z,100057.78
2019-04-26T11:39:08.181Z,100056.92
2019-04-26T11:40:14.088Z,100059.11
2019-04-26T11:41:37.895Z,100056.92
2019-04-26T11:44:08.110Z,100058.37
2019-04-26T11:46:44.675Z,100049.02
2019-04-26T11:49:08.309Z,100042.70
2019-04-26T11:51:37.322Z,100045.88
2019-04-26T11:54:06.292Z,100057.16
2019-04-26T11:56:37.532Z,100068.19
2019-04-26T11:59:06.173Z,100068.19
2019-04-26T12:01:36.670Z,100069.17
2019-04-26T12:04:12.458Z,100070.98
2019-04-26T12:07:01.420Z,100072.94
2019-04-26T12:09:38.444Z,100080.09
2019-04-26T12:12:09.330Z,100083.73
2019-04-26T12:14:39.122Z,100083.34
2019-04-26T12:17:07.992Z,100075.57
2019-04-26T12:19:36.879Z,100079.22
2019-04-26T12:22:08.439Z,100082.48
2019-04-26T12:24:37.326Z,100081.27
2019-04-26T12:27:06.589Z,100089.39
2019-04-26T12:29:36.967Z,100084.78
2019-04-26T12:32:05.891Z,100090.72
2019-04-26T12:34:34.953Z,100092.16
2019-04-26T12:37:03.809Z,100091.81
2019-04-26T12:39:36.810Z,100086.94
2019-04-26T12:42:04.470Z,100085.25
2019-04-26T12:44:41.369Z,100088.51
2019-04-26T12:47:15.495Z,100088.63
2019-04-26T12:49:44.317Z,100084.62
2019-04-26T12:52:13.384Z,100078.92
2019-04-26T12:54:42.956Z,100088.73
2019-04-26T12:57:16.116Z,100088.73
2019-04-26T12:59:44.647Z,100085.20
2019-04-26T13:02:16.540Z,100084.84
2019-04-26T13:04:44.745Z,100086.30
2019-04-26T13:07:23.794Z,100087.63
2019-04-26T13:10:07.169Z,100084.22
2019-04-26T13:13:01.303Z,100081.08
2019-04-26T13:15:51.874Z,100080.72
2019-04-26T13:18:20.858Z,100084.72
2019-04-26T13:20:49.882Z,100090.17
2019-04-26T13:23:18.813Z,100094.18
2019-04-26T13:25:47.686Z,100099.02
2019-04-26T13:28:20.374Z,100099.52
2019-04-26T13:30:47.595Z,100105.33
2019-04-26T13:33:16.576Z,100110.42
2019-04-26T13:36:01.934Z,100118.91
2019-04-26T13:38:16.167Z,100107.25
2019-04-26T13:40:45.005Z,100106.03
2019-04-26T13:43:14.013Z,100102.53
2019-04-26T13:46:04.853Z,100094.13
2019-04-26T13:49:07.831Z,100091.97
2019-04-26T13:51:36.941Z,100095.70
2019-04-26T13:54:05.830Z,100101.03
2019-04-26T13:56:35.906Z,100103.23
2019-04-26T13:59:05.978Z,100100.09
2019-04-26T14:01:35.054Z,100086.86
2019-04-26T14:04:06.744Z,100094.00
2019-04-26T14:06:34.508Z,100098.98
2019-04-26T14:09:03.983Z,100099.09
2019-04-26T14:11:33.043Z,100104.91
2019-04-26T14:14:02.013Z,100116.91
2019-04-26T14:16:31.024Z,100125.50
2019-04-26T14:19:00.003Z,100132.68
2019-04-26T14:21:33.016Z,100139.83
2019-04-26T14:24:19.500Z,100147.47
2019-04-26T14:26:51.776Z,100154.97
2019-04-26T14:29:21.142Z,100142.72
2019-04-26T14:31:52.952Z,100132.91
2019-04-26T14:34:21.563Z,100130.94
2019-04-26T14:36:50.483Z,100134.94
2019-04-26T14:39:20.987Z,100141.61
2019-04-26T14:41:52.795Z,100143.92
2019-04-26T14:44:20.870Z,100136.02
2019-04-26T14:46:53.253Z,100139.63
2019-04-26T14:49:23.328Z,100132.13
2019-04-26T14:51:55.866Z,100124.13
2019-04-26T14:54:22.204Z,100121.07
2019-04-26T14:56:52.307Z,100123.38
2019-04-26T14:59:43.481Z,100130.41
2019-04-26T15:02:29.392Z,100130.52
2019-04-26T15:05:20.200Z,100138.16
2019-04-26T15:07:51.494Z,100140.36
2019-04-26T15:10:22.694Z,100145.70
2019-04-26T15:12:58.510Z,100149.30
2019-04-26T15:15:22.452Z,100154.75
2019-04-26T15:17:55.075Z,100159.62
2019-04-26T15:20:24.297Z,100151.62
2019-04-26T15:22:52.982Z,100154.28
2019-04-26T15:25:22.454Z,100157.42
2019-04-26T15:27:52.439Z,100157.42
2019-04-26T15:30:22.300Z,100164.20
2019-04-26T15:32:52.904Z,100156.20
2019-04-26T15:35:23.242Z,100150.98
2019-04-26T15:37:53.341Z,100147.84
2019-04-26T15:40:39.613Z,100146.73
2019-04-26T15:43:20.830Z,100142.36
2019-04-26T15:45:58.439Z,100150.73
2019-04-26T15:48:54.488Z,100149.98
2019-04-26T15:51:27.162Z,100153.97
2019-04-26T15:53:55.138Z,100154.95
2019-04-26T15:56:24.789Z,100157.26
2019-04-26T15:58:53.703Z,100158.95
2019-04-26T16:01:22.623Z,100166.09
2019-04-26T16:03:53.086Z,100164.28
2019-04-26T16:06:23.653Z,100157.26
2019-04-26T16:08:52.585Z,100162.09
2019-04-26T16:11:21.899Z,100159.92
2019-04-26T16:13:55.058Z,100149.84
2019-04-26T16:16:27.934Z,100150.81
2019-04-26T16:18:55.534Z,100154.81
2019-04-26T16:21:23.161Z,100156.61
2019-04-26T16:23:55.337Z,100151.86
2019-04-26T16:26:23.637Z,100156.36
2019-04-26T16:29:18.368Z,100158.53
2019-04-26T16:31:57.337Z,100162.64
2019-04-26T16:34:26.748Z,100157.30
2019-04-26T16:36:55.946Z,100155.61
2019-04-26T16:39:32.294Z,100164.59
2019-04-26T16:41:55.560Z,100162.83
2019-04-26T16:44:29.487Z,100167.33
2019-04-26T16:47:01.258Z,100166.00
2019-04-26T16:49:25.748Z,100161.24
2019-04-26T16:52:01.998Z,100160.02
2019-04-26T16:54:44.737Z,100159.16
2019-04-26T16:57:13.799Z,100152.99
2019-04-26T16:59:49.032Z,100160.70
2019-04-26T17:02:16.156Z,100159.88
2019-04-26T17:04:44.299Z,100156.70
2019-04-26T17:07:13.871Z,100155.13
2019-04-26T17:09:59.628Z,100157.32
2019-04-26T17:12:14.831Z,100161.04
2019-04-26T17:14:47.731Z,100163.70
2019-04-26T17:17:15.053Z,100162.37
2019-04-26T17:19:43.893Z,100166.48
2019-04-26T17:22:23.228Z,100172.31
2019-04-26T17:25:09.861Z,100180.09
2019-04-26T17:27:40.221Z,100177.90
2019-04-26T17:30:13.071Z,100181.14
2019-04-26T17:32:42.229Z,100190.01
2019-04-26T17:35:12.721Z,100195.34
2019-04-26T17:37:41.632Z,100198.01
2019-04-26T17:40:10.643Z,100197.25
2019-04-26T17:42:40.798Z,100200.03
2019-04-26T17:45:10.785Z,100198.44
2019-04-26T17:47:41.818Z,100200.95
2019-04-26T17:50:10.958Z,100200.56
2019-04-26T17:52:40.887Z,100200.56
2019-04-26T17:55:11.927Z,100197.53
2019-04-26T17:57:47.898Z,100198.01
2019-04-26T18:00:15.392Z,100202.11
2019-04-26T18:02:47.983Z,100205.64
2019-04-26T18:05:13.563Z,100209.17
2019-04-26T18:07:50.260Z,100207.08
2019-04-26T18:10:13.525Z,100203.55
2019-04-26T18:12:44.169Z,100203.66
2019-04-26T18:15:17.273Z,100197.60
2019-04-26T18:18:04.040Z,100192.63
2019-04-26T18:20:57.115Z,100191.41
2019-04-26T18:23:26.221Z,100191.05
2019-04-26T18:25:55.180Z,100189.72
2019-04-26T18:28:24.237Z,100180.48
2019-04-26T18:30:53.454Z,100184.95
2019-04-26T18:33:43.180Z,100184.20
2019-04-26T18:36:31.906Z,100191.27
2019-04-26T18:39:03.742Z,100194.03
2019-04-26T18:41:33.961Z,100176.34
2019-04-26T18:44:03.244Z,100168.45
2019-04-26T18:46:47.148Z,100172.45
2019-04-26T18:49:18.324Z,100170.26
2019-04-26T18:51:48.348Z,100173.28
2019-04-26T18:54:35.588Z,100171.59
2019-04-26T18:57:04.771Z,100175.22
2019-04-26T18:59:34.149Z,100180.16
2019-04-26T19:02:03.995Z,100185.89
2019-04-26T19:04:33.638Z,100201.48
2019-04-26T19:07:02.871Z,100214.81
2019-04-26T19:09:45.254Z,100218.81
2019-04-26T19:12:02.725Z,100225.97
2019-04-26T19:15:03.052Z,100216.75
2019-04-26T19:17:47.052Z,100214.55
2019-04-26T19:20:37.869Z,100207.63
2019-04-26T19:23:08.617Z,100220.95
2019-04-26T19:25:40.868Z,100228.55
2019-04-26T19:28:08.473Z,100221.06
2019-04-26T19:30:40.089Z,100230.50
2019-04-26T19:33:11.532Z,100239.42
2019-04-26T19:35:43.141Z,100243.42
2019-04-26T19:38:13.338Z,100243.92
2019-04-26T19:40:46.085Z,100245.73
2019-04-26T19:43:12.621Z,100253.72
2019-04-26T19:46:04.565Z,100255.73
2019-04-26T19:48:55.364Z,100256.23
2019-04-26T19:51:45.440Z,100253.56
2019-04-26T19:54:31.365Z,100271.25
2019-04-26T19:57:03.685Z,100282.02
2019-04-26T19:59:34.473Z,100281.75
2019-04-26T20:02:02.358Z,100282.22
2019-04-26T20:04:34.074Z,100283.66
2019-04-26T20:07:02.296Z,100277.96
2019-04-26T20:09:31.922Z,100275.30
2019-04-26T20:12:02.610Z,100273.46
2019-04-26T20:14:44.931Z,100269.56
2019-04-26T20:17:02.559Z,100270.91
2019-04-26T20:19:37.022Z,100268.73
2019-04-26T20:22:03.629Z,100264.84
2019-04-26T20:24:32.705Z,100265.31
2019-04-26T20:27:03.551Z,100260.95
2019-04-26T20:29:32.821Z,100254.76
2019-04-26T20:32:12.497Z,100258.39
2019-04-26T20:34:45.260Z,100258.86
2019-04-26T20:37:16.232Z,100258.49
2019-04-26T20:39:45.202Z,100259.33
2019-04-26T20:42:14.408Z,100252.30
2019-04-26T20:44:50.448Z,100251.94
2019-04-26T20:47:17.486Z,100250.20
2019-04-26T20:49:49.673Z,100245.38
2019-04-26T20:52:20.787Z,100237.48
2019-04-26T20:54:51.107Z,100237.48
2019-04-26T20:57:17.864Z,100234.83
2019-04-26T20:59:46.818Z,100232.16
2019-04-26T21:02:16.244Z,100231.77
2019-04-26T21:04:46.659Z,100222.44
2019-04-26T21:07:15.763Z,100230.07
2019-04-26T21:09:44.603Z,100226.54
2019-04-26T21:12:17.274Z,100221.31
2019-04-26T21:14:45.633Z,100218.66
2019-04-26T21:17:14.908Z,100220.59
2019-04-26T21:19:43.952Z,100216.95
2019-04-26T21:22:12.996Z,100216.20
2019-04-26T21:24:43.667Z,100213.17
2019-04-26T21:27:31.790Z,100218.97
2019-04-26T21:30:08.104Z,100213.27
2019-04-26T21:32:59.389Z,100219.06
2019-04-26T21:35:34.237Z,100211.18
2019-04-26T21:38:07.425Z,100212.15
2019-04-26T21:40:41.550Z,100216.14
2019-04-26T21:43:10.472Z,100217.58
2019-04-26T21:45:39.409Z,100207.28
2019-04-26T21:48:28.994Z,100210.05
2019-04-26T21:50:57.874Z,100208.36
2019-04-26T21:53:29.676Z,100212.92
2019-04-26T21:55:57.453Z,100218.72
2019-04-26T21:58:26.612Z,100219.66
2019-04-26T22:01:15.746Z,100216.98
2019-04-26T22:03:47.474Z,100220.25
2019-04-26T22:06:14.658Z,100218.42
2019-04-26T22:08:57.305Z,100222.92
2019-04-26T22:11:23.312Z,100225.98
2019-04-26T22:14:00.698Z,100225.98
2019-04-26T22:16:38.286Z,100227.58
2019-04-26T22:19:35.345Z,100229.78
2019-04-26T22:22:23.194Z,100225.89
2019-04-26T22:24:53.142Z,100222.83
2019-04-26T22:27:25.318Z,100218.83
2019-04-26T22:29:55.110Z,100214.94
2019-04-26T22:32:24.133Z,100214.58
2019-04-26T22:34:53.929Z,100225.23
2019-04-26T22:37:29.610Z,100222.77
2019-04-26T22:39:54.341Z,100220.97
2019-04-26T22:42:23.990Z,100223.23
2019-04-26T22:45:03.326Z,100227.23
2019-04-26T22:47:43.770Z,100221.33
2019-04-26T22:50:15.656Z,100227.73
2019-04-26T22:52:46.710Z,100235.31
2019-04-26T22:55:17.594Z,100237.14
2019-04-26T22:57:45.358Z,100231.52
2019-04-26T23:00:20.107Z,100226.96
2019-04-26T23:02:47.539Z,100225.27
2019-04-26T23:05:16.470Z,100213.48
2019-04-26T23:07:45.513Z,100216.61
2019-04-26T23:10:15.342Z,100217.48
2019-04-26T23:13:04.456Z,100218.91
2019-04-26T23:15:51.592Z,100207.77
2019-04-26T23:18:38.736Z,100208.37
2019-04-26T23:21:15.108Z,100219.95
2019-04-26T23:23:44.362Z,100225.27
2019-04-26T23:26:14.420Z,100220.05
2019-04-26T23:28:43.658Z,100217.28
2019-04-26T23:31:13.436Z,100214.36
2019-04-26T23:33:42.988Z,100218.45
2019-04-26T23:36:13.611Z,100203.25
2019-04-26T23:38:43.908Z,100214.09
2019-04-26T23:41:14.244Z,100214.20
2019-04-26T23:43:42.486Z,100209.70
2019-04-26T23:46:14.385Z,100213.90
2019-04-26T23:48:48.491Z,100217.52
2019-04-26T23:51:13.222Z,100213.53
2019-04-26T23:53:42.891Z,100207.84
2019-04-26T23:56:16.165Z,100207.55
2019-04-26T23:58:44.130Z,100207.45
